Time;durP1;ratioP1;P1;durP2;ratioP2;P2;SDS_P1;SDS_P2;PMS_P1;PMS_P2;Temp;Humidity;BMP_temperature;BMP_pressure;BME280_temperature;BME280_humidity;BME280_pressure;Samples;Min_cycle;Max_cycle;Signal;HPM_P1;HPM_P2
2023/10/11 00:00:40;;;;;;;24.63;8.13;;;16.70;99.90;;;;;;5072531;28;20460;-76
2023/10/11 00:03:32;;;;;;;16.35;7.78;;;16.70;99.90;;;;;;5052584;28;20413;-76
2023/10/11 00:05:59;;;;;;;17.25;8.23;;;16.70;99.90;;;;;;5051467;28;20075;-76
2023/10/11 00:08:29;;;;;;;19.02;8.38;;;16.90;99.90;;;;;;5067725;28;20040;-76
2023/10/11 00:10:59;;;;;;;19.50;9.18;;;16.70;99.90;;;;;;5073017;28;20115;-77
2023/10/11 00:13:32;;;;;;;19.13;8.82;;;16.60;99.90;;;;;;5056243;28;20121;-76
2023/10/11 00:16:09;;;;;;;17.00;8.57;;;16.70;99.90;;;;;;5050578;28;20532;-77
2023/10/11 00:18:40;;;;;;;23.00;9.63;;;16.60;99.90;;;;;;5054920;28;20045;-76
2023/10/11 00:21:16;;;;;;;16.05;9.02;;;17.20;99.90;;;;;;5074117;28;20086;-77
2023/10/11 00:23:43;;;;;;;21.42;9.35;;;16.60;99.90;;;;;;5070894;28;20028;-76
2023/10/11 00:26:09;;;;;;;21.73;10.50;;;16.60;99.90;;;;;;5055556;28;20086;-76
2023/10/11 00:28:43;;;;;;;15.90;9.18;;;16.60;99.90;;;;;;5071290;28;20048;-76
2023/10/11 00:31:17;;;;;;;18.77;9.60;;;16.60;99.90;;;;;;5067239;28;20040;-77
2023/10/11 00:33:43;;;;;;;22.50;10.02;;;16.60;99.90;;;;;;5063498;28;20041;-76
2023/10/11 00:36:09;;;;;;;20.40;10.35;;;17.00;99.90;;;;;;5049376;28;20086;-77
2023/10/11 00:38:50;;;;;;;20.75;10.55;;;16.60;99.90;;;;;;5065303;28;20037;-77
2023/10/11 00:41:20;;;;;;;22.30;10.43;;;16.60;99.90;;;;;;5072045;28;20041;-77
2023/10/11 00:43:52;;;;;;;20.02;10.75;;;16.50;99.90;;;;;;5066070;28;20051;-77
2023/10/11 00:46:27;;;;;;;18.45;10.70;;;16.60;99.90;;;;;;5071167;28;20546;-77
2023/10/11 00:51:32;;;;;;;22.15;10.93;;;16.60;99.90;;;;;;5071964;28;20119;-77
2023/10/11 00:54:00;;;;;;;25.83;12.45;;;16.50;99.90;;;;;;5070235;28;20343;-77
2023/10/11 00:56:32;;;;;;;22.02;11.38;;;16.50;99.90;;;;;;5072294;28;20037;-77
2023/10/11 00:59:14;;;;;;;;;;;17.00;99.90;;;;;;5071557;28;20086;-77
2023/10/11 01:01:45;;;;;;;20.77;10.98;;;16.50;99.90;;;;;;5072914;28;19924;-77
2023/10/11 01:04:12;;;;;;;23.98;12.90;;;16.50;99.90;;;;;;5054840;28;20041;-77
2023/10/11 01:06:38;;;;;;;26.40;12.60;;;16.50;99.90;;;;;;5071205;28;20963;-77
2023/10/11 01:09:15;;;;;;;26.92;12.18;;;16.50;99.90;;;;;;5070884;28;20040;-77
2023/10/11 01:11:41;;;;;;;26.58;12.55;;;16.50;99.90;;;;;;5054016;28;20075;-77
2023/10/11 01:14:08;;;;;;;20.60;12.23;;;16.50;99.90;;;;;;5063971;28;20045;-77
2023/10/11 01:16:35;;;;;;;25.67;12.35;;;16.50;99.90;;;;;;5070139;28;20041;-77
2023/10/11 01:19:07;;;;;;;30.25;13.15;;;16.50;99.90;;;;;;5067975;28;20413;-77
2023/10/11 01:21:46;;;;;;;32.75;13.45;;;16.40;99.90;;;;;;5044175;28;20041;-77
2023/10/11 01:24:18;;;;;;;25.10;12.65;;;17.10;99.90;;;;;;5069165;28;20033;-77
2023/10/11 01:26:44;;;;;;;27.02;12.73;;;16.50;99.90;;;;;;5063978;28;20468;-77
2023/10/11 01:29:10;;;;;;;22.05;12.68;;;16.60;99.90;;;;;;5069278;28;20060;-77
2023/10/11 01:31:37;;;;;;;24.02;12.95;;;16.40;99.90;;;;;;5072369;28;20131;-77
2023/10/11 01:34:03;;;;;;;22.83;13.13;;;16.40;99.90;;;;;;5070827;28;20032;-77
2023/10/11 01:36:32;;;;;;;23.70;12.98;;;16.40;99.90;;;;;;5067157;28;20086;-78
2023/10/11 01:39:06;;;;;;;24.95;12.57;;;17.00;99.90;;;;;;5071214;28;20051;-77
2023/10/11 01:41:34;;;;;;;26.45;12.80;;;16.90;99.90;;;;;;5071044;28;20047;-76
2023/10/11 01:43:59;;;;;;;29.55;13.82;;;16.40;99.90;;;;;;5071644;28;20052;-76
2023/10/11 01:46:27;;;;;;;26.70;12.65;;;16.80;99.90;;;;;;5050782;28;20478;-77
2023/10/11 01:48:55;;;;;;;25.70;13.23;;;16.40;99.90;;;;;;5070929;28;20419;-77
2023/10/11 01:51:28;;;;;;;25.15;12.90;;;16.90;99.90;;;;;;5063301;28;20036;-76
2023/10/11 01:54:11;;;;;;;27.63;13.30;;;16.40;99.90;;;;;;5069945;28;20052;-77
2023/10/11 01:56:41;;;;;;;24.20;13.10;;;16.40;99.90;;;;;;5066961;28;20041;-77
2023/10/11 01:59:07;;;;;;;24.70;13.27;;;16.40;99.90;;;;;;5065604;28;20052;-77
2023/10/11 02:01:40;;;;;;;24.42;13.55;;;16.40;99.90;;;;;;5068385;28;20036;-77
2023/10/11 02:04:16;;;;;;;28.52;13.18;;;16.30;99.90;;;;;;5032986;28;20485;-77
2023/10/11 02:06:43;;;;;;;29.65;14.20;;;16.40;99.90;;;;;;5053227;28;20428;-77
2023/10/11 02:09:10;;;;;;;25.77;13.52;;;16.70;99.90;;;;;;5072530;28;20119;-77
2023/10/11 02:11:41;;;;;;;33.45;14.60;;;16.30;99.90;;;;;;5053506;28;20029;-77
2023/10/11 02:14:07;;;;;;;26.88;13.30;;;16.30;99.90;;;;;;5069475;28;20036;-77
2023/10/11 02:16:33;;;;;;;25.27;13.13;;;16.80;99.90;;;;;;5070301;28;20056;-77
2023/10/11 02:18:59;;;;;;;24.55;13.57;;;16.30;99.90;;;;;;5070490;28;20036;-77
2023/10/11 02:21:44;;;;;;;29.65;13.57;;;16.30;99.90;;;;;;5070969;28;20044;-77
2023/10/11 02:24:19;;;;;;;25.02;13.02;;;16.30;99.90;;;;;;5054208;28;20044;-77
2023/10/11 02:26:54;;;;;;;27.30;13.13;;;16.20;99.90;;;;;;5067075;28;20040;-77
2023/10/11 02:29:25;;;;;;;23.52;12.73;;;16.20;99.90;;;;;;5070538;28;20047;-77
2023/10/11 02:31:52;;;;;;;29.30;13.30;;;16.80;99.90;;;;;;5070422;28;20044;-77
2023/10/11 02:34:22;;;;;;;26.40;13.70;;;16.10;99.90;;;;;;5068991;28;20071;-78
2023/10/11 02:37:02;;;;;;;24.60;12.60;;;16.20;99.90;;;;;;5069720;28;20082;-77
2023/10/11 02:39:43;;;;;;;22.08;13.20;;;16.20;99.90;;;;;;5068572;28;20028;-77
2023/10/11 02:42:08;;;;;;;25.90;12.27;;;16.10;99.90;;;;;;5052231;28;20507;-77
2023/10/11 02:44:39;;;;;;;23.95;12.88;;;16.10;99.90;;;;;;5051084;28;20503;-77
2023/10/11 02:47:06;;;;;;;24.55;12.52;;;16.10;99.90;;;;;;5070715;28;20067;-77
2023/10/11 02:49:34;;;;;;;23.83;12.75;;;16.00;99.90;;;;;;5051599;28;20035;-77
2023/10/11 02:52:05;;;;;;;26.75;12.07;;;16.10;99.90;;;;;;5070705;28;20534;-77
2023/10/11 02:54:38;;;;;;;21.75;12.15;;;16.30;99.90;;;;;;5068578;28;20029;-77
2023/10/11 02:57:20;;;;;;;24.88;12.23;;;16.00;99.90;;;;;;5070063;28;20106;-77
2023/10/11 02:59:52;;;;;;;24.50;13.07;;;16.00;99.90;;;;;;5066089;28;20410;-77
2023/10/11 03:02:21;;;;;;;24.55;12.02;;;16.00;99.90;;;;;;5056412;28;20075;-77
2023/10/11 03:04:47;;;;;;;23.85;11.90;;;15.90;99.90;;;;;;5073284;28;20098;-77
2023/10/11 03:07:15;;;;;;;23.02;10.88;;;15.90;99.90;;;;;;5074041;28;20484;-76
2023/10/11 03:09:45;;;;;;;23.33;12.48;;;15.80;99.90;;;;;;5057272;28;20029;-77
2023/10/11 03:12:26;;;;;;;27.23;11.70;;;15.90;99.90;;;;;;5072972;28;20090;-77
2023/10/11 03:14:54;;;;;;;30.45;12.30;;;15.90;99.90;;;;;;5072476;28;20049;-77
2023/10/11 03:17:20;;;;;;;27.80;12.60;;;15.90;99.90;;;;;;5074376;28;20043;-76
2023/10/11 03:19:49;;;;;;;33.47;12.70;;;15.90;99.90;;;;;;5073212;28;20043;-77
2023/10/11 03:22:20;;;;;;;24.90;12.35;;;16.30;99.90;;;;;;5073416;28;20090;-77
2023/10/11 03:24:53;;;;;;;25.23;12.35;;;15.90;99.90;;;;;;5073090;28;20072;-77
2023/10/11 03:27:36;;;;;;;26.42;11.65;;;15.90;99.90;;;;;;5055358;28;20522;-77
2023/10/11 03:30:01;;;;;;;28.92;11.85;;;15.90;99.90;;;;;;5067713;28;20488;-77
2023/10/11 03:32:27;;;;;;;24.77;11.63;;;16.40;99.90;;;;;;5048042;28;20050;-77
2023/10/11 03:34:56;;;;;;;19.55;11.88;;;15.80;99.90;;;;;;5074804;28;20055;-77
2023/10/11 03:37:27;;;;;;;28.70;12.77;;;15.80;99.90;;;;;;5056743;28;20124;-77
2023/10/11 03:39:56;;;;;;;28.03;12.17;;;15.80;99.90;;;;;;5070799;28;20116;-77
2023/10/11 03:42:36;;;;;;;24.38;11.85;;;15.80;99.90;;;;;;5071500;28;20082;-77
2023/10/11 03:45:10;;;;;;;27.95;12.38;;;15.80;99.90;;;;;;5051775;28;20036;-77
2023/10/11 03:47:37;;;;;;;24.20;11.35;;;15.80;99.90;;;;;;5055391;28;20076;-76
2023/10/11 03:50:06;;;;;;;27.98;11.60;;;15.80;99.90;;;;;;5067080;28;20095;-77
2023/10/11 03:52:32;;;;;;;25.45;12.38;;;15.80;99.90;;;;;;5068813;28;20102;-77
2023/10/11 03:55:09;;;;;;;25.30;11.77;;;15.80;99.90;;;;;;5071183;28;20040;-77
2023/10/11 03:57:41;;;;;;;27.90;11.55;;;15.80;99.90;;;;;;5056634;28;20076;-77
2023/10/11 04:03:05;;;;;;;25.70;11.77;;;15.80;99.90;;;;;;5072428;28;20067;-77
2023/10/11 04:05:40;;;;;;;21.05;11.00;;;15.80;99.90;;;;;;5055107;28;20078;-76
2023/10/11 04:08:10;;;;;;;25.08;11.50;;;15.90;99.90;;;;;;5073496;28;20052;-77
2023/10/11 04:10:44;;;;;;;22.20;12.30;;;15.90;99.90;;;;;;5072566;28;20041;-77
2023/10/11 04:13:15;;;;;;;22.98;12.00;;;15.90;99.90;;;;;;5072745;28;20059;-77
2023/10/11 04:15:49;;;;;;;26.70;11.70;;;16.10;99.90;;;;;;5071535;28;20485;-78
2023/10/11 04:18:33;;;;;;;26.70;12.48;;;15.90;99.90;;;;;;5068026;28;20044;-76
2023/10/11 04:23:39;;;;;;;24.60;12.15;;;16.00;99.90;;;;;;5068925;28;20048;-77
2023/10/11 04:26:25;;;;;;;24.70;12.52;;;16.10;99.90;;;;;;5069748;28;20024;-77
2023/10/11 04:28:52;;;;;;;24.02;11.43;;;16.00;99.90;;;;;;5069220;28;20059;-76
2023/10/11 04:34:11;;;;;;;26.65;13.00;;;16.80;99.90;;;;;;5011595;28;20052;-77
2023/10/11 04:36:42;;;;;;;27.55;12.80;;;16.00;99.90;;;;;;5069274;28;20088;-77
2023/10/11 04:39:16;;;;;;;23.55;11.50;;;16.10;99.90;;;;;;5055443;28;20481;-77
2023/10/11 04:41:50;;;;;;;29.33;12.90;;;16.00;99.90;;;;;;5072067;28;20059;-77
2023/10/11 04:44:17;;;;;;;25.70;13.48;;;16.00;99.90;;;;;;5055758;28;20040;-77
2023/10/11 04:46:44;;;;;;;24.75;12.18;;;16.30;99.90;;;;;;5069234;28;20052;-77
2023/10/11 04:49:21;;;;;;;30.20;14.27;;;16.20;99.90;;;;;;5065268;28;20036;-77
2023/10/11 04:51:47;;;;;;;25.05;13.30;;;16.00;99.90;;;;;;5047616;28;20051;-76
2023/10/11 04:54:13;;;;;;;30.20;13.68;;;16.00;99.90;;;;;;5073013;28;20029;-77
2023/10/11 04:59:36;;;;;;;32.72;13.93;;;16.00;99.90;;;;;;5070945;28;20036;-77
2023/10/11 05:02:11;;;;;;;29.35;13.90;;;16.30;99.90;;;;;;5069011;28;20048;-77
2023/10/11 05:04:44;;;;;;;27.60;13.75;;;16.00;99.90;;;;;;5066986;28;20102;-77
2023/10/11 05:07:12;;;;;;;30.80;15.27;;;16.00;99.90;;;;;;5072434;28;20047;-76
2023/10/11 05:09:38;;;;;;;34.33;14.75;;;16.10;99.90;;;;;;5070633;28;20052;-77
2023/10/11 05:12:08;;;;;;;29.63;14.52;;;16.80;99.90;;;;;;5069769;28;20174;-77
2023/10/11 05:19:56;;;;;;;27.08;14.32;;;16.00;99.90;;;;;;5070639;28;20536;-77
2023/10/11 05:27:39;;;;;;;30.27;14.82;;;16.00;99.90;;;;;;5060268;28;20052;-77
2023/10/11 05:52:55;;;;;;;35.83;17.38;;;15.90;99.90;;;;;;5068690;28;20127;-76
2023/10/11 05:55:22;;;;;;;38.10;16.27;;;15.90;99.90;;;;;;5069545;28;20036;-77
2023/10/11 05:57:50;;;;;;;44.10;16.73;;;15.80;99.90;;;;;;5069875;28;20043;-76
2023/10/11 06:00:23;;;;;;;35.65;17.35;;;15.80;99.90;;;;;;5069057;28;20036;-76
2023/10/11 06:02:50;;;;;;;33.97;16.95;;;15.80;99.90;;;;;;5062736;28;20048;-76
2023/10/11 06:05:22;;;;;;;32.13;16.00;;;15.80;99.90;;;;;;5067492;28;20032;-77
2023/10/11 06:08:00;;;;;;;34.42;17.00;;;15.80;99.90;;;;;;5053832;28;20044;-77
2023/10/11 06:10:41;;;;;;;28.38;15.32;;;15.80;99.90;;;;;;5054852;28;20127;-76
2023/10/11 06:13:14;;;;;;;35.55;17.80;;;15.80;99.90;;;;;;5067865;28;20076;-76
2023/10/11 06:16:02;;;;;;;;;;;15.80;99.90;;;;;;5072827;28;20067;-76
2023/10/11 06:18:52;;;;;;;34.42;17.02;;;15.80;99.90;;;;;;5055199;28;19916;-77
2023/10/11 06:21:51;;;;;;;32.88;16.98;;;15.80;99.90;;;;;;5052501;28;20040;-77
2023/10/11 06:24:22;;;;;;;40.97;17.20;;;16.00;99.90;;;;;;5053963;28;20044;-77
2023/10/11 06:26:52;;;;;;;30.25;16.58;;;16.30;99.90;;;;;;5055348;28;20496;-78
2023/10/11 06:29:29;;;;;;;42.80;17.35;;;15.90;99.90;;;;;;5073066;28;20416;-78
2023/10/11 06:32:01;;;;;;;33.10;16.88;;;15.80;99.90;;;;;;5051860;28;20146;-76
2023/10/11 06:34:32;;;;;;;35.35;15.98;;;15.90;99.90;;;;;;5056409;28;20036;-77
2023/10/11 06:36:58;;;;;;;29.60;16.27;;;15.90;99.90;;;;;;5050766;28;20047;-77
2023/10/11 06:39:34;;;;;;;30.88;16.83;;;16.60;99.90;;;;;;5068550;28;20523;-77
2023/10/11 06:44:57;;;;;;;31.20;16.67;;;16.00;99.90;;;;;;5068092;28;20360;-77
2023/10/11 06:47:24;;;;;;;35.35;16.20;;;16.00;99.90;;;;;;5072887;28;20408;-76
2023/10/11 06:49:55;;;;;;;39.20;17.58;;;15.90;99.90;;;;;;5072239;28;20111;-76
2023/10/11 06:52:27;;;;;;;30.02;16.55;;;16.00;99.90;;;;;;5072531;28;20040;-76
2023/10/11 06:55:08;;;;;;;31.38;15.93;;;16.00;99.90;;;;;;5071410;28;20040;-76
2023/10/11 06:57:39;;;;;;;35.55;16.45;;;16.00;99.90;;;;;;5055853;28;20037;-77
2023/10/11 07:00:28;;;;;;;29.48;15.75;;;16.00;99.90;;;;;;5050788;28;20048;-76
2023/10/11 07:05:48;;;;;;;32.67;16.75;;;16.10;99.90;;;;;;5065426;28;20456;-77
2023/10/11 07:08:31;;;;;;;29.83;16.63;;;16.10;99.90;;;;;;5071277;28;20089;-78
2023/10/11 07:13:43;;;;;;;35.22;17.42;;;16.10;99.90;;;;;;5072612;28;20052;-77
2023/10/11 07:16:10;;;;;;;34.47;16.98;;;16.10;99.90;;;;;;5070608;28;20052;-77
2023/10/11 07:18:39;;;;;;;33.60;18.40;;;16.10;99.90;;;;;;5063340;28;20037;-76
2023/10/11 07:21:09;;;;;;;31.33;16.67;;;16.90;99.90;;;;;;5057183;28;20390;-75
2023/10/11 07:23:45;;;;;;;40.90;17.60;;;16.20;99.90;;;;;;5072162;28;20036;-77
2023/10/11 07:28:59;;;;;;;35.40;18.17;;;16.20;99.90;;;;;;5074118;28;20041;-76
2023/10/11 07:31:35;;;;;;;38.85;18.55;;;16.20;99.90;;;;;;5074256;28;20041;-76
2023/10/11 07:34:20;;;;;;;38.97;18.63;;;16.20;99.90;;;;;;5071333;28;20033;-76
2023/10/11 07:36:55;;;;;;;34.95;17.52;;;16.20;99.90;;;;;;5073620;28;20029;-77
2023/10/11 07:41:52;;;;;;;40.10;20.02;;;16.30;99.90;;;;;;5073188;28;20045;-76
2023/10/11 07:44:27;;;;;;;40.30;19.73;;;16.30;99.90;;;;;;5055531;28;20079;-77
2023/10/11 07:46:56;;;;;;;39.13;19.00;;;16.30;99.90;;;;;;5050171;28;20098;-76
2023/10/11 07:49:25;;;;;;;43.47;20.88;;;16.30;99.90;;;;;;5066936;28;20283;-77
2023/10/11 07:52:08;;;;;;;38.42;20.77;;;16.40;99.90;;;;;;5044090;28;20052;-77
2023/10/11 07:54:36;;;;;;;47.25;22.50;;;16.20;99.90;;;;;;5069849;28;20509;-77
2023/10/11 07:57:04;;;;;;;43.85;21.60;;;16.40;99.90;;;;;;5060118;28;20040;-77
2023/10/11 07:59:30;;;;;;;39.38;21.23;;;16.50;99.90;;;;;;5072064;28;20043;-77
2023/10/11 08:02:26;;;;;;;43.58;22.25;;;16.50;99.90;;;;;;5070260;28;20044;-77
2023/10/11 08:04:53;;;;;;;44.95;21.95;;;16.50;99.90;;;;;;5074011;28;20048;-77
2023/10/11 08:07:22;;;;;;;38.58;20.52;;;16.50;99.90;;;;;;5058050;28;20423;-77
2023/10/11 08:09:52;;;;;;;40.30;21.35;;;16.50;99.90;;;;;;5056558;28;20493;-76
2023/10/11 08:12:23;;;;;;;49.22;22.00;;;16.50;99.90;;;;;;5068717;28;20136;-77
2023/10/11 08:14:56;;;;;;;43.13;21.98;;;16.50;99.90;;;;;;5073513;28;20036;-76
2023/10/11 08:17:22;;;;;;;44.95;22.45;;;16.60;99.90;;;;;;5068553;28;20409;-77
2023/10/11 08:22:32;;;;;;;;;;;16.60;99.90;;;;;;5073649;28;20040;-77
2023/10/11 08:25:15;;;;;;;41.03;20.77;;;16.60;99.90;;;;;;5054993;28;19916;-77
2023/10/11 08:27:51;;;;;;;44.75;22.55;;;16.60;99.90;;;;;;5072962;28;20036;-77
2023/10/11 08:30:22;;;;;;;51.15;22.80;;;16.60;99.90;;;;;;5071372;28;20637;-77
2023/10/11 08:32:53;;;;;;;45.67;20.58;;;16.70;99.90;;;;;;5047331;28;20041;-77
2023/10/11 08:35:31;;;;;;;46.40;21.50;;;16.70;99.90;;;;;;5056514;28;20538;-76
2023/10/11 08:38:02;;;;;;;45.03;22.05;;;16.70;99.90;;;;;;5073952;28;20194;-76
2023/10/11 08:40:35;;;;;;;41.50;19.73;;;16.80;99.90;;;;;;5073022;28;20040;-76
2023/10/11 08:43:02;;;;;;;45.63;21.05;;;16.80;99.90;;;;;;5067125;28;20412;-76
2023/10/11 08:45:41;;;;;;;41.80;21.17;;;16.80;99.90;;;;;;5072138;28;20045;-76
2023/10/11 08:48:11;;;;;;;45.05;21.05;;;17.30;99.90;;;;;;5073588;28;20508;-76
2023/10/11 08:50:37;;;;;;;48.05;21.52;;;16.90;99.90;;;;;;5074324;28;20445;-76
2023/10/11 08:53:09;;;;;;;44.67;21.90;;;17.20;99.90;;;;;;5073697;28;20048;-77
2023/10/11 08:55:42;;;;;;;42.72;21.13;;;16.90;99.90;;;;;;5066256;28;20456;-76
2023/10/11 08:58:12;;;;;;;43.42;19.52;;;17.20;99.90;;;;;;5073092;28;20040;-77
2023/10/11 09:00:39;;;;;;;49.33;20.98;;;16.90;99.90;;;;;;5073613;28;20109;-76
2023/10/11 09:03:19;;;;;;;41.75;21.02;;;16.90;99.90;;;;;;5073601;28;20055;-77
2023/10/11 09:06:05;;;;;;;45.35;22.38;;;16.90;99.90;;;;;;5064336;28;20051;-76
2023/10/11 09:08:32;;;;;;;46.15;21.00;;;16.90;99.90;;;;;;5072643;28;20040;-76
2023/10/11 09:11:28;;;;;;;42.83;21.88;;;16.90;99.90;;;;;;5071177;28;20052;-77
2023/10/11 09:14:11;;;;;;;42.25;20.20;;;17.00;99.90;;;;;;5058530;28;20037;-77
2023/10/11 09:16:37;;;;;;;53.97;22.13;;;17.00;99.90;;;;;;5072986;28;20047;-77
2023/10/11 09:19:10;;;;;;;49.00;21.10;;;17.40;99.90;;;;;;5072009;28;20497;-77
2023/10/11 09:21:37;;;;;;;50.47;22.02;;;16.90;99.90;;;;;;5063326;28;20383;-77
2023/10/11 09:24:20;;;;;;;47.53;20.80;;;16.90;99.90;;;;;;5054146;28;20040;-77
2023/10/11 09:27:12;;;;;;;37.67;20.13;;;16.90;99.90;;;;;;5059027;28;20563;-77
2023/10/11 09:29:42;;;;;;;46.80;20.48;;;16.90;99.90;;;;;;5051548;28;20051;-77
2023/10/11 09:32:09;;;;;;;42.17;20.52;;;16.90;99.90;;;;;;5059727;28;20051;-76
2023/10/11 09:34:41;;;;;;;44.55;20.33;;;17.20;99.90;;;;;;5054556;28;20392;-77
2023/10/11 09:37:12;;;;;;;38.38;21.08;;;17.00;99.90;;;;;;5071123;28;20047;-77
2023/10/11 09:39:39;;;;;;;49.08;20.90;;;16.80;99.90;;;;;;5070286;28;20127;-76
2023/10/11 09:42:11;;;;;;;37.88;19.85;;;17.50;99.90;;;;;;5072473;28;20037;-76
2023/10/11 09:44:40;;;;;;;42.40;19.65;;;17.00;99.90;;;;;;5063821;28;20037;-76
2023/10/11 09:47:16;;;;;;;36.00;19.10;;;17.00;99.90;;;;;;5054239;28;20470;-76
2023/10/11 09:49:46;;;;;;;32.90;18.23;;;17.10;99.90;;;;;;5072839;28;20044;-77
2023/10/11 09:52:16;;;;;;;36.83;17.75;;;17.10;99.90;;;;;;5071637;28;20050;-77
2023/10/11 09:54:42;;;;;;;36.10;18.33;;;17.10;99.90;;;;;;5070964;28;20401;-76
2023/10/11 09:57:37;;;;;;;36.78;17.75;;;17.10;99.90;;;;;;5071765;28;20037;-77
2023/10/11 10:00:26;;;;;;;33.22;16.13;;;17.10;99.90;;;;;;5055584;28;20072;-77
2023/10/11 10:02:56;;;;;;;37.42;15.52;;;17.10;99.90;;;;;;5067060;28;20048;-77
2023/10/11 10:05:22;;;;;;;32.88;15.45;;;17.10;99.90;;;;;;5071745;28;20086;-76
2023/10/11 10:07:51;;;;;;;34.38;16.77;;;17.10;99.90;;;;;;5071427;28;20114;-76
2023/10/11 10:10:25;;;;;;;36.88;17.60;;;17.10;99.90;;;;;;5062384;28;20056;-76
2023/10/11 10:13:09;;;;;;;35.17;16.80;;;17.10;99.90;;;;;;5066029;28;20051;-76
2023/10/11 10:15:47;;;;;;;30.35;16.80;;;17.10;99.90;;;;;;5069343;28;20044;-76
2023/10/11 10:18:19;;;;;;;43.60;18.02;;;17.20;99.90;;;;;;5071638;28;20072;-77
2023/10/11 10:21:01;;;;;;;35.75;16.42;;;17.30;99.90;;;;;;5063709;28;20039;-76
2023/10/11 10:23:29;;;;;;;32.33;16.33;;;17.30;99.90;;;;;;5070053;28;20044;-76
2023/10/11 10:26:06;;;;;;;28.25;15.77;;;17.10;99.90;;;;;;5052865;28;20055;-76
2023/10/11 10:28:32;;;;;;;30.45;15.27;;;17.50;99.90;;;;;;5070756;28;20052;-77
2023/10/11 10:31:04;;;;;;;25.00;13.57;;;17.50;99.90;;;;;;5070775;28;20040;-76
2023/10/11 10:33:35;;;;;;;24.50;13.25;;;17.60;99.90;;;;;;5069631;28;20044;-77
2023/10/11 10:36:22;;;;;;;22.58;11.48;;;18.00;99.90;;;;;;5070998;28;20495;-76
2023/10/11 10:39:00;;;;;;;23.38;10.45;;;17.80;99.90;;;;;;5056609;28;20049;-77
2023/10/11 10:41:31;;;;;;;22.90;10.30;;;17.80;99.90;;;;;;5070918;28;20105;-77
2023/10/11 10:44:10;;;;;;;17.58;9.50;;;17.80;99.90;;;;;;5070539;28;20048;-77
2023/10/11 10:46:55;;;;;;;21.13;9.83;;;17.90;99.90;;;;;;5052733;28;20040;-76
2023/10/11 10:49:41;;;;;;;19.58;10.00;;;17.90;99.90;;;;;;5069498;28;20397;-77
2023/10/11 10:52:19;;;;;;;21.30;9.13;;;18.00;99.90;;;;;;5070455;28;20090;-76
2023/10/11 10:55:05;;;;;;;16.50;7.60;;;18.10;99.90;;;;;;5065984;28;20040;-77
2023/10/11 10:57:42;;;;;;;13.85;6.32;;;18.20;99.90;;;;;;5070527;28;20119;-78
2023/10/11 11:00:24;;;;;;;17.95;6.25;;;18.30;99.90;;;;;;5071311;28;20051;-76
2023/10/11 11:02:56;;;;;;;9.65;6.22;;;18.40;99.90;;;;;;5064372;28;20042;-76
2023/10/11 11:05:29;;;;;;;;;;;18.50;99.90;;;;;;5061841;28;20039;-77
2023/10/11 11:08:23;;;;;;;16.08;6.68;;;18.60;99.90;;;;;;5052913;28;19917;-76
2023/10/11 11:10:55;;;;;;;16.10;6.30;;;18.80;99.90;;;;;;5069416;28;20124;-77
2023/10/11 11:13:28;;;;;;;16.20;5.60;;;18.90;99.90;;;;;;5052621;28;20094;-77
2023/10/11 11:15:57;;;;;;;14.70;5.53;;;19.00;99.90;;;;;;5069318;28;20401;-77
2023/10/11 11:18:33;;;;;;;12.93;5.40;;;19.00;99.90;;;;;;5096434;28;20048;-76
2023/10/11 11:21:20;;;;;;;14.23;6.00;;;19.10;99.90;;;;;;5073173;28;20037;-76
2023/10/11 11:23:49;;;;;;;13.90;6.05;;;19.10;99.90;;;;;;5056726;28;20094;-77
2023/10/11 11:26:22;;;;;;;12.05;6.45;;;19.10;99.90;;;;;;5074420;28;20060;-76
2023/10/11 11:29:08;;;;;;;12.27;5.75;;;19.20;99.90;;;;;;5056314;28;20036;-76
2023/10/11 11:31:53;;;;;;;13.63;6.25;;;19.20;99.90;;;;;;5056729;28;20040;-77
2023/10/11 11:34:38;;;;;;;11.90;5.95;;;19.20;99.90;;;;;;5056562;28;20036;-76
2023/10/11 11:37:23;;;;;;;12.07;5.57;;;19.20;99.90;;;;;;5047780;28;20062;-77
2023/10/11 11:39:52;;;;;;;12.27;6.07;;;19.20;99.90;;;;;;5067632;28;20052;-76
2023/10/11 11:42:20;;;;;;;10.52;5.53;;;19.20;99.90;;;;;;5073892;28;20382;-77
2023/10/11 11:44:55;;;;;;;15.32;5.47;;;19.20;99.90;;;;;;5065313;28;20078;-77
2023/10/11 11:47:21;;;;;;;11.07;5.07;;;19.20;99.90;;;;;;5052589;28;20055;-76
2023/10/11 11:49:47;;;;;;;16.40;6.00;;;19.20;99.90;;;;;;5065802;28;20040;-77
2023/10/11 11:52:28;;;;;;;12.70;5.10;;;19.20;99.90;;;;;;5069485;28;20572;-76
2023/10/11 11:54:56;;;;;;;12.63;5.80;;;19.10;99.90;;;;;;5063831;28;20032;-77
2023/10/11 11:57:33;;;;;;;14.13;6.28;;;19.20;99.90;;;;;;5065372;28;20037;-77
2023/10/11 12:00:19;;;;;;;15.38;6.07;;;19.10;99.90;;;;;;5065691;28;20043;-77
2023/10/11 12:02:45;;;;;;;16.65;5.93;;;19.20;99.90;;;;;;5066739;28;20097;-78
2023/10/11 12:05:11;;;;;;;10.75;6.05;;;19.20;99.90;;;;;;5070424;28;20044;-78
2023/10/11 12:07:36;;;;;;;13.07;5.72;;;19.00;99.90;;;;;;5053184;28;20040;-77
2023/10/11 12:10:10;;;;;;;13.77;5.40;;;19.10;99.90;;;;;;5069101;28;20123;-76
2023/10/11 12:12:37;;;;;;;12.98;6.32;;;19.10;99.90;;;;;;5048826;28;20540;-77
2023/10/11 12:15:03;;;;;;;13.65;5.80;;;19.30;99.90;;;;;;5068306;28;20032;-76
2023/10/11 12:17:29;;;;;;;12.95;6.20;;;19.20;99.90;;;;;;5070963;28;20399;-77
2023/10/11 12:19:55;;;;;;;11.63;5.55;;;19.20;99.90;;;;;;5066143;28;20120;-78
2023/10/11 12:22:23;;;;;;;17.63;6.10;;;19.20;99.90;;;;;;5069076;28;20504;-76
2023/10/11 12:24:49;;;;;;;11.75;5.82;;;19.30;99.90;;;;;;5062755;28;20068;-77
2023/10/11 12:27:15;;;;;;;10.68;5.50;;;19.40;99.90;;;;;;5070192;28;20071;-77
2023/10/11 12:29:43;;;;;;;14.40;5.13;;;19.70;99.90;;;;;;5068768;28;20885;-77
2023/10/11 12:32:13;;;;;;;13.43;5.50;;;19.70;99.90;;;;;;5083160;28;20045;-77
2023/10/11 12:34:38;;;;;;;12.70;4.85;;;19.70;99.90;;;;;;5064343;28;20044;-77
2023/10/11 12:37:04;;;;;;;12.35;5.18;;;19.90;99.90;;;;;;5068727;28;20035;-78
2023/10/11 12:39:33;;;;;;;10.55;5.05;;;19.80;99.90;;;;;;5067830;28;20025;-77
2023/10/11 12:42:04;;;;;;;11.43;4.72;;;19.80;99.90;;;;;;5047066;28;20123;-78
2023/10/11 12:44:29;;;;;;;13.48;5.38;;;19.80;99.90;;;;;;5066870;28;20179;-77
2023/10/11 12:46:58;;;;;;;8.15;4.15;;;19.70;99.90;;;;;;5069586;28;20501;-76
2023/10/11 12:49:24;;;;;;;7.75;4.25;;;19.80;99.90;;;;;;5069235;28;20083;-77
2023/10/11 12:51:50;;;;;;;11.85;5.43;;;19.70;99.90;;;;;;5069436;28;20064;-76
2023/10/11 12:54:19;;;;;;;10.52;5.18;;;19.70;99.90;;;;;;5068737;28;20094;-78
2023/10/11 12:56:46;;;;;;;13.40;5.72;;;19.70;99.90;;;;;;5059030;28;20083;-76
2023/10/11 12:59:13;;;;;;;11.80;5.82;;;20.00;99.90;;;;;;5064783;28;20123;-76
2023/10/11 13:01:41;;;;;;;13.35;5.97;;;19.60;99.90;;;;;;5066590;28;20320;-77
2023/10/11 13:04:17;;;;;;;14.23;6.35;;;19.60;99.90;;;;;;5068410;28;20040;-77
2023/10/11 13:06:49;;;;;;;10.60;5.95;;;19.60;99.90;;;;;;5079120;28;20072;-77
2023/10/11 13:09:22;;;;;;;13.50;6.65;;;19.60;99.90;;;;;;5065625;28;20110;-77
2023/10/11 13:11:48;;;;;;;13.40;6.95;;;19.60;99.90;;;;;;5051393;28;20028;-77
2023/10/11 13:14:23;;;;;;;14.18;7.10;;;19.80;99.90;;;;;;5065183;28;20374;-77
2023/10/11 13:16:55;;;;;;;17.35;8.00;;;19.60;99.90;;;;;;5067363;28;20037;-77
2023/10/11 13:19:24;;;;;;;14.20;7.20;;;19.60;99.90;;;;;;5050040;28;20040;-77
2023/10/11 13:21:54;;;;;;;21.20;8.30;;;19.80;99.90;;;;;;5071309;28;20056;-77
2023/10/11 13:24:27;;;;;;;12.43;7.43;;;19.50;99.90;;;;;;5068313;28;20068;-78
2023/10/11 13:26:58;;;;;;;13.57;6.68;;;19.50;99.90;;;;;;5049400;28;20785;-77
2023/10/11 13:29:27;;;;;;;11.48;6.32;;;19.50;99.90;;;;;;5069640;28;20051;-77
2023/10/11 13:31:57;;;;;;;14.25;7.38;;;20.00;99.90;;;;;;5035593;28;20037;-77
2023/10/11 13:34:29;;;;;;;14.52;6.80;;;19.70;99.90;;;;;;5064756;28;20033;-77
2023/10/11 13:37:00;;;;;;;16.77;7.35;;;19.40;99.90;;;;;;5076760;28;20036;-77
2023/10/11 13:39:39;;;;;;;15.00;7.03;;;19.50;99.90;;;;;;5058170;28;20107;-77
2023/10/11 13:42:14;;;;;;;17.05;6.60;;;19.50;99.90;;;;;;5067578;28;20078;-77
2023/10/11 13:44:54;;;;;;;14.60;7.18;;;19.80;99.90;;;;;;5065744;28;20045;-77
2023/10/11 13:47:21;;;;;;;14.73;6.80;;;19.60;99.90;;;;;;5068597;28;20130;-76
2023/10/11 13:49:58;;;;;;;19.48;6.93;;;19.70;99.90;;;;;;5068920;28;20039;-77
2023/10/11 13:52:23;;;;;;;14.45;6.60;;;20.70;99.90;;;;;;5068739;28;20041;-77
2023/10/11 13:54:51;;;;;;;17.45;6.72;;;19.90;99.90;;;;;;5069113;28;20267;-77
2023/10/11 13:57:18;;;;;;;14.25;6.63;;;19.60;99.90;;;;;;5064222;28;20045;-77
2023/10/11 13:59:45;;;;;;;16.60;6.70;;;19.70;99.90;;;;;;5067284;28;20106;-77